Bookmark and Share
Track history (hours):
 

Bareilly

Last reported at 2014-Apr-16 13:25 UTC. Time now 2014-Apr-20 15:53 UTC.
Position N 56°11' E 005°21'.

Length 243 m; draft 8.4 m.

Type: Tanker. MMSI: 636013054.

NotesDate/timePositionNaut miles runAvg speedWind from/ knotsBaromVisibWave heightAir tempDewpointWater temp
2014-Apr-16 13:25N 56°11' E 005°21'1311.3
2014-Apr-16 12:17N 55°58' E 005°25'12111.1
2014-Apr-16 01:23N 53°60' E 004°44'2010.4
2014-Apr-15 23:29N 53°45' E 004°20'1010.4
2014-Apr-15 22:34N 53°40' E 004°07'1410.5
2014-Apr-15 21:12N 53°31' E 003°48'610.0
2014-Apr-15 20:33N 53°26' E 003°42'79 8.8
2014-Apr-15 11:34N 52°07' E 003°38'1010.2
2014-Apr-15 10:34N 52°02' E 003°53'1110.5
2014-Apr-15 09:34N 51°57' E 004°08'0 0.2
2014-Apr-15 08:32N 51°57' E 004°08'0 0.0
2014-Apr-15 06:32N 51°57' E 004°08'0 0.0
2014-Apr-15 05:32N 51°57' E 004°08'0 0.0
2014-Apr-15 03:32N 51°57' E 004°08'0 0.0
2014-Apr-15 02:32N 51°57' E 004°08'0 0.0
2014-Apr-15 01:32N 51°57' E 004°08'0 0.0
2014-Apr-15 00:32N 51°57' E 004°08'0 0.0
2014-Apr-14 23:32N 51°57' E 004°08'0 0.0
2014-Apr-14 22:32N 51°57' E 004°08'0 0.0
2014-Apr-14 21:32N 51°57' E 004°08'0 0.0
2014-Apr-14 20:32N 51°57' E 004°08'0 0.0
2014-Apr-14 19:32N 51°57' E 004°08'0 0.0
2014-Apr-14 18:32N 51°57' E 004°08'0 0.0
2014-Apr-14 17:32N 51°57' E 004°08'0 0.0
2014-Apr-14 16:32N 51°57' E 004°08'0 0.0
2014-Apr-14 15:32N 51°57' E 004°08'0 0.0
2014-Apr-14 14:32N 51°57' E 004°08'0 0.0
2014-Apr-14 13:32N 51°57' E 004°08'0 0.0
2014-Apr-14 11:32N 51°57' E 004°08'0 0.0
2014-Apr-14 10:32N 51°57' E 004°08'0 0.0
2014-Apr-14 09:32N 51°57' E 004°08'0 0.0
2014-Apr-14 08:32N 51°57' E 004°08'0 0.0
2014-Apr-14 07:32N 51°57' E 004°08'0 0.0
2014-Apr-14 06:32N 51°57' E 004°08'0 0.0
2014-Apr-14 05:32N 51°57' E 004°08'0 0.0
2014-Apr-13 22:33N 51°57' E 004°09'0 0.0
2014-Apr-13 21:33N 51°57' E 004°09'0 0.0
2014-Apr-13 20:33N 51°57' E 004°09'0 0.0
2014-Apr-13 19:33N 51°57' E 004°09'0 0.0
2014-Apr-13 18:33N 51°57' E 004°09'0 0.0
2014-Apr-13 17:33N 51°57' E 004°09'0 0.0
2014-Apr-13 16:33N 51°57' E 004°09'0 0.0
2014-Apr-13 15:33N 51°57' E 004°09'0 0.0
2014-Apr-13 14:33N 51°57' E 004°09'0 0.0
2014-Apr-13 13:33N 51°57' E 004°09'0 0.0
2014-Apr-13 12:33N 51°57' E 004°09'0 0.0
2014-Apr-13 11:33N 51°57' E 004°09'0 0.0
2014-Apr-13 10:30N 51°57' E 004°09'0 0.0
2014-Apr-13 09:33N 51°57' E 004°09'0 0.0
2014-Apr-13 08:33N 51°57' E 004°09'0 0.0
2014-Apr-13 07:33N 51°57' E 004°09'0 0.0
2014-Apr-13 06:33N 51°57' E 004°09'0 0.0
2014-Apr-13 05:33N 51°57' E 004°09'0 0.0
2014-Apr-13 04:33N 51°57' E 004°09'0 0.0
2014-Apr-13 03:33N 51°57' E 004°09'0 0.0
2014-Apr-13 02:33N 51°57' E 004°09'0 0.0
2014-Apr-13 01:33N 51°57' E 004°09'0 0.0
2014-Apr-13 00:33N 51°57' E 004°09'0 0.0
2014-Apr-12 23:30N 51°57' E 004°09'1 1.0
2014-Apr-12 22:33N 51°57' E 004°10'1 0.6
2014-Apr-12 21:20N 51°56' E 004°11'  
2014-Apr-07 06:17N 51°56' E 004°11'0 0.0
2014-Apr-07 03:30N 51°56' E 004°11'2 1.9
2014-Apr-07 02:28N 51°57' E 004°08'0 0.2
2014-Apr-07 01:11N 51°57' E 004°08'0 0.0
2014-Apr-07 00:11N 51°57' E 004°08'0 0.0
2014-Apr-06 22:23N 51°57' E 004°08'0 0.0
2014-Apr-06 20:08N 51°57' E 004°08'  

Dump ship's entire track history

sailing weather and tide predictions

Bareilly — A8KG7 — position and weather